sensor_id;sensor_type;location;lat;lon;timestamp;pressure;altitude;pressure_sealevel;temperature;humidity
76106;BME280;64832;45.274;5.880;2022-12-29T00:01:20;99341.91;;;19.12;52.63
76106;BME280;64832;45.274;5.880;2022-12-29T00:03:46;99340.03;;;19.12;52.91
76106;BME280;64832;45.274;5.880;2022-12-29T00:06:11;99340.84;;;19.13;53.01
76106;BME280;64832;45.274;5.880;2022-12-29T00:08:36;99337.31;;;19.12;53.21
76106;BME280;64832;45.274;5.880;2022-12-29T00:11:25;99330.00;;;19.13;53.33
76106;BME280;64832;45.274;5.880;2022-12-29T00:13:51;99328.34;;;19.12;53.48
76106;BME280;64832;45.274;5.880;2022-12-29T00:16:36;99315.03;;;19.10;53.29
76106;BME280;64832;45.274;5.880;2022-12-29T00:19:03;99313.16;;;19.11;53.36
76106;BME280;64832;45.274;5.880;2022-12-29T00:21:28;99313.97;;;19.11;53.43
76106;BME280;64832;45.274;5.880;2022-12-29T00:24:15;99316.66;;;19.11;53.49
76106;BME280;64832;45.274;5.880;2022-12-29T00:26:55;99298.75;;;19.10;53.48
76106;BME280;64832;45.274;5.880;2022-12-29T00:29:41;99299.81;;;19.09;53.68
76106;BME280;64832;45.274;5.880;2022-12-29T16:17:06;98910.09;;;19.05;47.75
76106;BME280;64832;45.274;5.880;2022-12-29T16:19:39;98912.00;;;18.93;50.11
76106;BME280;64832;45.274;5.880;2022-12-29T16:22:12;98906.94;;;18.96;51.08
76106;BME280;64832;45.274;5.880;2022-12-29T16:24:40;98908.09;;;19.00;50.59
76106;BME280;64832;45.274;5.880;2022-12-29T16:27:22;98909.75;;;19.01;48.96
76106;BME280;64832;45.274;5.880;2022-12-29T16:29:53;98904.03;;;18.86;48.98
76106;BME280;64832;45.274;5.880;2022-12-29T16:32:28;98903.66;;;18.83;48.58
76106;BME280;64832;45.274;5.880;2022-12-29T16:35:22;98910.97;;;18.82;50.03
76106;BME280;64832;45.274;5.880;2022-12-29T16:38:06;98906.34;;;18.94;51.40
76106;BME280;64832;45.274;5.880;2022-12-29T16:40:32;98914.06;;;19.14;51.67
76106;BME280;64832;45.274;5.880;2022-12-29T16:43:02;98906.72;;;19.26;51.75
76106;BME280;64832;45.274;5.880;2022-12-29T16:50:36;98918.34;;;19.50;51.93
76106;BME280;64832;45.274;5.880;2022-12-29T16:53:03;98916.50;;;19.55;52.21
76106;BME280;64832;45.274;5.880;2022-12-29T16:55:29;98920.31;;;19.54;52.10
76106;BME280;64832;45.274;5.880;2022-12-29T16:57:55;98924.91;;;19.54;52.31
76106;BME280;64832;45.274;5.880;2022-12-29T17:00:24;98931.16;;;19.54;52.42
76106;BME280;64832;45.274;5.880;2022-12-29T17:02:54;98925.38;;;19.51;52.58
76106;BME280;64832;45.274;5.880;2022-12-29T17:05:21;98929.06;;;19.45;52.82
76106;BME280;64832;45.274;5.880;2022-12-29T17:07:47;98934.00;;;19.48;52.99
76106;BME280;64832;45.274;5.880;2022-12-29T17:10:12;98940.25;;;19.48;52.93
76106;BME280;64832;45.274;5.880;2022-12-29T17:12:43;98939.44;;;19.48;53.13
76106;BME280;64832;45.274;5.880;2022-12-29T17:15:13;98944.38;;;19.51;53.06
76106;BME280;64832;45.274;5.880;2022-12-29T17:17:42;98941.44;;;19.52;53.31
76106;BME280;64832;45.274;5.880;2022-12-29T17:20:19;98943.06;;;19.53;53.36
76106;BME280;64832;45.274;5.880;2022-12-29T17:22:46;98950.16;;;19.54;53.53
76106;BME280;64832;45.274;5.880;2022-12-29T17:25:17;98954.25;;;19.57;53.56
76106;BME280;64832;45.274;5.880;2022-12-29T17:27:50;98945.78;;;19.53;53.57
76106;BME280;64832;45.274;5.880;2022-12-29T17:30:19;98957.81;;;19.57;53.96
76106;BME280;64832;45.274;5.880;2022-12-29T17:32:51;98950.50;;;19.58;53.90
76106;BME280;64832;45.274;5.880;2022-12-29T17:35:19;98948.34;;;19.60;53.88
76106;BME280;64832;45.274;5.880;2022-12-29T17:37:46;98959.03;;;19.66;54.26
76106;BME280;64832;45.274;5.880;2022-12-29T17:40:20;98963.59;;;19.77;54.30
76106;BME280;64832;45.274;5.880;2022-12-29T17:42:49;98958.84;;;19.84;54.29
76106;BME280;64832;45.274;5.880;2022-12-29T17:45:22;98955.88;;;19.86;54.32
76106;BME280;64832;45.274;5.880;2022-12-29T17:47:47;98957.78;;;19.85;54.53
76106;BME280;64832;45.274;5.880;2022-12-29T17:50:16;98946.34;;;19.83;54.70
76106;BME280;64832;45.274;5.880;2022-12-29T17:52:46;98953.16;;;19.86;54.86
76106;BME280;64832;45.274;5.880;2022-12-29T17:55:16;98956.97;;;19.85;54.86
76106;BME280;64832;45.274;5.880;2022-12-29T17:57:42;98952.50;;;19.79;54.94
76106;BME280;64832;45.274;5.880;2022-12-29T18:00:14;98958.94;;;19.89;54.83
76106;BME280;64832;45.274;5.880;2022-12-29T18:02:40;98964.38;;;19.89;55.04
76106;BME280;64832;45.274;5.880;2022-12-29T18:05:14;98958.72;;;19.91;54.99
76106;BME280;64832;45.274;5.880;2022-12-29T18:07:41;98952.44;;;19.90;55.15
76106;BME280;64832;45.274;5.880;2022-12-29T18:10:07;98950.31;;;19.92;55.37
76106;BME280;64832;45.274;5.880;2022-12-29T18:12:41;98953.59;;;19.94;55.21
76106;BME280;64832;45.274;5.880;2022-12-29T18:15:23;98959.38;;;19.98;55.07
76106;BME280;64832;45.274;5.880;2022-12-29T18:17:53;98956.91;;;19.97;55.40
76106;BME280;64832;45.274;5.880;2022-12-29T18:20:20;98952.28;;;19.97;55.31
76106;BME280;64832;45.274;5.880;2022-12-29T18:22:46;98951.47;;;19.97;55.49
76106;BME280;64832;45.274;5.880;2022-12-29T18:25:24;98951.28;;;20.03;55.48
76106;BME280;64832;45.274;5.880;2022-12-29T18:27:50;98952.13;;;20.04;55.48
76106;BME280;64832;45.274;5.880;2022-12-29T18:30:16;98947.53;;;20.04;55.41
76106;BME280;64832;45.274;5.880;2022-12-29T18:32:41;98955.19;;;20.07;55.50
76106;BME280;64832;45.274;5.880;2022-12-29T18:35:29;98948.16;;;20.11;55.36
76106;BME280;64832;45.274;5.880;2022-12-29T18:37:59;98955.75;;;20.09;55.53
76106;BME280;64832;45.274;5.880;2022-12-29T18:40:24;98960.69;;;20.12;55.56
76106;BME280;64832;45.274;5.880;2022-12-29T18:42:49;98960.44;;;20.14;55.62
76106;BME280;64832;45.274;5.880;2022-12-29T18:45:20;98953.13;;;20.14;55.67
76106;BME280;64832;45.274;5.880;2022-12-29T18:47:46;98962.09;;;20.15;55.59
76106;BME280;64832;45.274;5.880;2022-12-29T18:50:13;98950.97;;;20.16;55.68
76106;BME280;64832;45.274;5.880;2022-12-29T18:52:39;98957.78;;;20.19;55.45
76106;BME280;64832;45.274;5.880;2022-12-29T18:55:16;98942.94;;;20.21;55.53
76106;BME280;64832;45.274;5.880;2022-12-29T18:57:43;98948.34;;;20.21;55.59
76106;BME280;64832;45.274;5.880;2022-12-29T19:00:10;98946.22;;;20.23;55.66
76106;BME280;64832;45.274;5.880;2022-12-29T19:02:36;98947.88;;;20.24;55.69
76106;BME280;64832;45.274;5.880;2022-12-29T19:05:01;98945.97;;;20.25;55.49
76106;BME280;64832;45.274;5.880;2022-12-29T19:07:27;98940.06;;;20.28;55.61
76106;BME280;64832;45.274;5.880;2022-12-29T19:09:52;98938.16;;;20.28;55.69
76106;BME280;64832;45.274;5.880;2022-12-29T19:12:18;98947.47;;;20.32;55.63
76106;BME280;64832;45.274;5.880;2022-12-29T19:14:44;98944.78;;;20.32;55.67
76106;BME280;64832;45.274;5.880;2022-12-29T19:17:13;98941.53;;;20.35;55.69
76106;BME280;64832;45.274;5.880;2022-12-29T19:19:40;98945.91;;;20.36;55.63
76106;BME280;64832;45.274;5.880;2022-12-29T19:22:06;98944.56;;;20.39;55.80
76106;BME280;64832;45.274;5.880;2022-12-29T19:24:32;98952.72;;;20.39;55.62
76106;BME280;64832;45.274;5.880;2022-12-29T19:26:57;98957.66;;;20.42;55.42
76106;BME280;64832;45.274;5.880;2022-12-29T19:29:23;98949.78;;;20.40;55.53
76106;BME280;64832;45.274;5.880;2022-12-29T19:31:48;98966.38;;;20.44;55.60
76106;BME280;64832;45.274;5.880;2022-12-29T19:34:15;98969.94;;;20.44;55.54
76106;BME280;64832;45.274;5.880;2022-12-29T19:36:41;98979.47;;;20.47;55.57
76106;BME280;64832;45.274;5.880;2022-12-29T19:39:07;98970.50;;;20.46;55.53
76106;BME280;64832;45.274;5.880;2022-12-29T19:41:32;98977.38;;;20.49;55.44
76106;BME280;64832;45.274;5.880;2022-12-29T19:43:58;98981.13;;;20.48;55.33
76106;BME280;64832;45.274;5.880;2022-12-29T19:46:23;98983.84;;;20.48;55.21
76106;BME280;64832;45.274;5.880;2022-12-29T19:48:50;98986.00;;;20.46;55.34
76106;BME280;64832;45.274;5.880;2022-12-29T19:51:16;98991.44;;;20.46;55.35
76106;BME280;64832;45.274;5.880;2022-12-29T19:53:42;98992.84;;;20.48;55.34
76106;BME280;64832;45.274;5.880;2022-12-29T19:56:08;98999.09;;;20.49;55.39
76106;BME280;64832;45.274;5.880;2022-12-29T19:58:35;99002.13;;;20.52;55.28
76106;BME280;64832;45.274;5.880;2022-12-29T20:01:07;99006.00;;;20.57;55.28
76106;BME280;64832;45.274;5.880;2022-12-29T20:03:33;99011.66;;;20.55;55.21
76106;BME280;64832;45.274;5.880;2022-12-29T20:05:59;99006.84;;;20.57;55.24
76106;BME280;64832;45.274;5.880;2022-12-29T20:08:25;99018.59;;;20.63;55.23
76106;BME280;64832;45.274;5.880;2022-12-29T20:10:58;99036.06;;;20.67;55.32
76106;BME280;64832;45.274;5.880;2022-12-29T20:13:23;99036.31;;;20.65;54.98
76106;BME280;64832;45.274;5.880;2022-12-29T20:15:48;99035.00;;;20.68;55.17
76106;BME280;64832;45.274;5.880;2022-12-29T20:18:14;99035.56;;;20.70;55.06
76106;BME280;64832;45.274;5.880;2022-12-29T20:20:39;99038.00;;;20.71;55.08
76106;BME280;64832;45.274;5.880;2022-12-29T20:23:05;99027.41;;;20.70;54.98
76106;BME280;64832;45.274;5.880;2022-12-29T20:25:30;99031.28;;;20.74;55.24
76106;BME280;64832;45.274;5.880;2022-12-29T20:27:56;99029.38;;;20.74;55.08
76106;BME280;64832;45.274;5.880;2022-12-29T20:30:21;99043.56;;;20.76;54.96
76106;BME280;64832;45.274;5.880;2022-12-29T20:32:48;99042.72;;;20.76;55.07
76106;BME280;64832;45.274;5.880;2022-12-29T20:35:15;99036.78;;;20.79;55.05
76106;BME280;64832;45.274;5.880;2022-12-29T20:37:41;99043.88;;;20.80;54.97
76106;BME280;64832;45.274;5.880;2022-12-29T20:40:07;99041.41;;;20.78;54.88
76106;BME280;64832;45.274;5.880;2022-12-29T20:42:33;99039.53;;;20.79;54.93
76106;BME280;64832;45.274;5.880;2022-12-29T20:44:58;99038.91;;;20.77;54.88
76106;BME280;64832;45.274;5.880;2022-12-29T20:47:26;99047.69;;;20.79;55.01
76106;BME280;64832;45.274;5.880;2022-12-29T20:49:51;99060.78;;;20.82;54.85
76106;BME280;64832;45.274;5.880;2022-12-29T20:52:17;99060.78;;;20.82;55.09
76106;BME280;64832;45.274;5.880;2022-12-29T20:54:43;99058.84;;;20.82;54.91
76106;BME280;64832;45.274;5.880;2022-12-29T20:57:09;99061.84;;;20.81;54.78
76106;BME280;64832;45.274;5.880;2022-12-29T20:59:35;99079.53;;;20.83;54.84
76106;BME280;64832;45.274;5.880;2022-12-29T21:02:01;99083.09;;;20.84;54.74
76106;BME280;64832;45.274;5.880;2022-12-29T21:04:26;99065.72;;;20.85;54.61
76106;BME280;64832;45.274;5.880;2022-12-29T21:06:52;99056.72;;;20.84;54.80
76106;BME280;64832;45.274;5.880;2022-12-29T21:09:17;99054.84;;;20.85;54.71
76106;BME280;64832;45.274;5.880;2022-12-29T21:11:45;99049.41;;;20.85;54.67
76106;BME280;64832;45.274;5.880;2022-12-29T21:14:10;99043.97;;;20.85;54.93
76106;BME280;64832;45.274;5.880;2022-12-29T21:16:36;99026.56;;;20.86;54.81
76106;BME280;64832;45.274;5.880;2022-12-29T21:19:02;99025.72;;;20.85;54.67
76106;BME280;64832;45.274;5.880;2022-12-29T21:21:27;99029.53;;;20.84;54.52
76106;BME280;64832;45.274;5.880;2022-12-29T21:23:53;99030.38;;;20.85;54.50
76106;BME280;64832;45.274;5.880;2022-12-29T21:26:22;99025.72;;;20.85;54.59
76106;BME280;64832;45.274;5.880;2022-12-29T21:28:48;99014.84;;;20.85;54.36
76106;BME280;64832;45.274;5.880;2022-12-29T21:31:25;99014.63;;;20.87;54.44
76106;BME280;64832;45.274;5.880;2022-12-29T21:33:51;99014.06;;;20.85;54.52
76106;BME280;64832;45.274;5.880;2022-12-29T21:36:17;99006.97;;;20.84;54.51
76106;BME280;64832;45.274;5.880;2022-12-29T21:38:42;99010.25;;;20.86;54.52
76106;BME280;64832;45.274;5.880;2022-12-29T21:41:11;99003.97;;;20.85;54.54
76106;BME280;64832;45.274;5.880;2022-12-29T21:43:38;99005.91;;;20.85;54.59
76106;BME280;64832;45.274;5.880;2022-12-29T21:46:04;99005.91;;;20.85;54.26
76106;BME280;64832;45.274;5.880;2022-12-29T21:48:31;99009.69;;;20.84;54.36
76106;BME280;64832;45.274;5.880;2022-12-29T21:51:08;99006.69;;;20.85;54.36
76106;BME280;64832;45.274;5.880;2022-12-29T21:53:58;99013.47;;;20.83;54.36
76106;BME280;64832;45.274;5.880;2022-12-29T21:56:45;99018.81;;;20.78;53.90
76106;BME280;64832;45.274;5.880;2022-12-29T21:59:12;99017.78;;;20.79;53.87
76106;BME280;64832;45.274;5.880;2022-12-29T22:01:57;99020.22;;;20.80;53.97
76106;BME280;64832;45.274;5.880;2022-12-29T22:04:42;99026.75;;;20.79;53.84
76106;BME280;64832;45.274;5.880;2022-12-29T22:07:26;99025.94;;;20.79;53.77
76106;BME280;64832;45.274;5.880;2022-12-29T22:10:10;99030.28;;;20.80;53.57
76106;BME280;64832;45.274;5.880;2022-12-29T22:12:54;99033.00;;;20.80;53.25
76106;BME280;64832;45.274;5.880;2022-12-29T22:15:29;99031.38;;;20.79;53.16
76106;BME280;64832;45.274;5.880;2022-12-29T22:17:56;99044.47;;;20.82;53.14
76106;BME280;64832;45.274;5.880;2022-12-29T22:20:25;99047.19;;;20.82;53.21
76106;BME280;64832;45.274;5.880;2022-12-29T22:22:51;99047.19;;;20.82;53.12
76106;BME280;64832;45.274;5.880;2022-12-29T22:25:17;99044.69;;;20.80;52.83
76106;BME280;64832;45.274;5.880;2022-12-29T22:27:42;99047.19;;;20.82;53.01
76106;BME280;64832;45.274;5.880;2022-12-29T22:30:08;99040.91;;;20.81;53.00
76106;BME280;64832;45.274;5.880;2022-12-29T22:32:34;99049.91;;;20.82;53.12
76106;BME280;64832;45.274;5.880;2022-12-29T22:34:59;99047.41;;;20.80;52.91
76106;BME280;64832;45.274;5.880;2022-12-29T22:37:25;99050.97;;;20.81;53.04
76106;BME280;64832;45.274;5.880;2022-12-29T22:39:50;99035.63;;;20.75;53.25
76106;BME280;64832;45.274;5.880;2022-12-29T22:42:16;99045.53;;;20.81;53.02
76106;BME280;64832;45.274;5.880;2022-12-29T22:44:41;99047.19;;;20.82;52.83
76106;BME280;64832;45.274;5.880;2022-12-29T22:47:08;99043.63;;;20.81;53.04
76106;BME280;64832;45.274;5.880;2022-12-29T22:49:33;99047.19;;;20.82;53.03
76106;BME280;64832;45.274;5.880;2022-12-29T22:51:59;99054.50;;;20.81;53.09
76106;BME280;64832;45.274;5.880;2022-12-29T22:54:24;99053.41;;;20.82;53.02
76106;BME280;64832;45.274;5.880;2022-12-29T22:56:50;99054.25;;;20.83;53.17
76106;BME280;64832;45.274;5.880;2022-12-29T22:59:15;99050.97;;;20.81;52.86
76106;BME280;64832;45.274;5.880;2022-12-29T23:01:41;99053.41;;;20.82;53.07
76106;BME280;64832;45.274;5.880;2022-12-29T23:04:07;99040.91;;;20.81;52.92
76106;BME280;64832;45.274;5.880;2022-12-29T23:06:33;99046.09;;;20.83;52.86
76106;BME280;64832;45.274;5.880;2022-12-29T23:09:00;99042.81;;;20.81;52.86
76106;BME280;64832;45.274;5.880;2022-12-29T23:11:26;99059.94;;;20.81;53.00
76106;BME280;64832;45.274;5.880;2022-12-29T23:13:52;99056.13;;;20.82;52.84
76106;BME280;64832;45.274;5.880;2022-12-29T23:16:18;99044.13;;;20.78;52.98
76106;BME280;64832;45.274;5.880;2022-12-29T23:18:45;99055.56;;;20.80;53.01
76106;BME280;64832;45.274;5.880;2022-12-29T23:21:11;99059.38;;;20.79;53.05
76106;BME280;64832;45.274;5.880;2022-12-29T23:23:37;99058.28;;;20.80;52.85
76106;BME280;64832;45.274;5.880;2022-12-29T23:26:19;99065.38;;;20.81;52.77
76106;BME280;64832;45.274;5.880;2022-12-29T23:28:45;99056.41;;;20.81;52.80
76106;BME280;64832;45.274;5.880;2022-12-29T23:31:10;99068.09;;;20.81;53.01
76106;BME280;64832;45.274;5.880;2022-12-29T23:33:36;99087.47;;;20.85;53.45
76106;BME280;64832;45.274;5.880;2022-12-29T23:36:02;99088.03;;;20.87;53.18
76106;BME280;64832;45.274;5.880;2022-12-29T23:38:28;99086.03;;;20.82;53.53
